createdAt,value
2022-09-20T03:55:16.159Z,6.68
2022-09-20T03:58:16.740Z,6.15
2022-09-20T04:00:49.578Z,5.78
2022-09-20T04:03:53.865Z,4.43
2022-09-20T04:06:48.576Z,5.97
2022-09-20T04:09:41.913Z,5.43
2022-09-20T04:12:17.468Z,5.88
2022-09-20T04:14:58.310Z,4.90
2022-09-20T04:17:32.158Z,6.93
2022-09-20T04:20:05.979Z,5.10
2022-09-20T04:22:32.925Z,5.55
2022-09-20T04:25:14.678Z,6.28
2022-09-20T04:27:48.088Z,5.70
2022-09-20T04:30:20.384Z,4.37
2022-09-20T04:33:15.395Z,6.43
2022-09-20T04:36:10.687Z,5.38
2022-09-20T04:38:37.422Z,5.55
2022-09-20T04:41:40.800Z,5.00
2022-09-20T04:44:27.903Z,6.73
2022-09-20T04:47:22.958Z,6.90
2022-09-20T04:50:12.538Z,6.20
2022-09-20T04:52:57.711Z,5.85
2022-09-20T04:55:44.790Z,6.03
2022-09-20T04:58:49.004Z,4.80
2022-09-20T05:01:33.868Z,8.15
2022-09-20T05:04:23.989Z,5.88
2022-09-20T05:07:12.180Z,7.55
2022-09-20T05:10:00.445Z,8.57
2022-09-20T05:12:36.280Z,6.37
2022-09-20T05:15:11.766Z,7.15
2022-09-20T05:17:59.607Z,7.32
2022-09-20T05:20:47.880Z,8.27
2022-09-20T05:23:29.461Z,5.68
2022-09-20T05:26:24.777Z,5.33
2022-09-20T05:29:02.604Z,5.57
2022-09-20T05:31:44.648Z,6.53
2022-09-20T05:34:25.655Z,7.53
2022-09-20T05:37:02.383Z,6.32
2022-09-20T05:39:51.604Z,5.23
2022-09-20T05:42:42.378Z,5.13
2022-09-20T05:45:48.461Z,7.07
2022-09-20T05:48:23.883Z,5.47
2022-09-20T05:51:03.751Z,7.18
2022-09-20T05:53:59.190Z,7.27
2022-09-20T05:56:52.887Z,6.57
2022-09-20T05:59:40.062Z,6.28
2022-09-20T06:02:36.520Z,9.38
2022-09-20T06:05:15.769Z,6.75
2022-09-20T06:07:42.149Z,6.93
2022-09-20T06:10:37.126Z,5.40
2022-09-20T06:13:22.188Z,5.43
2022-09-20T06:16:04.428Z,6.85
2022-09-20T06:18:56.922Z,5.75
2022-09-20T06:21:40.277Z,6.13
2022-09-20T06:24:18.700Z,5.22
2022-09-20T06:26:45.141Z,5.35
2022-09-20T06:29:14.074Z,5.78
2022-09-20T06:31:40.577Z,6.88
2022-09-20T06:34:11.302Z,5.23
2022-09-20T06:36:58.449Z,4.80
2022-09-20T06:40:10.469Z,5.68
2022-09-20T06:42:39.053Z,5.35
2022-09-20T06:45:05.770Z,4.15
2022-09-20T06:47:35.639Z,5.10
2022-09-20T06:50:06.375Z,5.38
2022-09-20T06:52:32.961Z,7.53
2022-09-20T06:54:59.696Z,5.35
2022-09-20T06:57:34.907Z,6.38
2022-09-20T07:00:02.293Z,5.43
2022-09-20T07:02:28.793Z,4.93
2022-09-20T07:04:57.070Z,5.40
2022-09-20T07:07:23.936Z,4.22
2022-09-20T07:09:51.167Z,5.75
2022-09-20T07:12:18.133Z,5.53
2022-09-20T07:14:44.589Z,4.53
2022-09-20T07:17:11.053Z,5.57
2022-09-20T07:19:37.530Z,5.05
2022-09-20T07:22:04.032Z,5.38
2022-09-20T07:24:32.220Z,5.17
2022-09-20T07:27:04.219Z,5.22
2022-09-20T07:29:31.563Z,6.13
2022-09-20T07:31:58.670Z,6.47
2022-09-20T07:34:25.615Z,5.10
2022-09-20T07:36:52.490Z,7.30
2022-09-20T07:39:19.093Z,6.22
2022-09-20T07:41:48.381Z,4.97
2022-09-20T07:44:22.157Z,4.80
2022-09-20T07:46:52.711Z,5.18
2022-09-20T07:49:19.261Z,4.47
2022-09-20T07:51:45.802Z,5.13
2022-09-20T07:54:12.228Z,5.38
2022-09-20T07:56:39.269Z,5.95
2022-09-20T07:59:06.326Z,4.72
2022-09-20T08:01:32.963Z,4.20
2022-09-20T08:03:59.623Z,5.35
2022-09-20T08:06:26.775Z,3.95
2022-09-20T08:08:53.336Z,5.78
2022-09-20T08:11:27.812Z,4.93
2022-09-20T08:14:10.016Z,7.37
2022-09-20T08:16:42.021Z,4.03
2022-09-20T08:19:09.296Z,3.47
2022-09-20T08:21:39.753Z,4.20
2022-09-20T08:24:06.376Z,5.03
2022-09-20T08:26:35.052Z,4.10
2022-09-20T08:29:01.631Z,4.10
2022-09-20T08:31:34.280Z,4.82
2022-09-20T08:34:03.865Z,6.35
2022-09-20T08:36:36.122Z,5.30
2022-09-20T08:41:56.753Z,5.72
2022-09-20T08:44:57.936Z,3.42
2022-09-20T08:47:29.775Z,4.22
2022-09-20T08:49:57.176Z,6.35
2022-09-20T08:52:39.401Z,3.83
2022-09-20T08:55:21.919Z,4.10
2022-09-20T08:57:53.306Z,4.43
2022-09-20T09:00:26.298Z,4.60
2022-09-20T09:02:58.132Z,4.35
2022-09-20T09:05:35.088Z,4.37
2022-09-20T09:08:16.343Z,4.20
2022-09-20T09:10:47.056Z,4.10
2022-09-20T09:13:20.799Z,4.65
2022-09-20T09:15:57.169Z,3.25
2022-09-20T09:18:34.778Z,5.17
2022-09-20T09:21:04.274Z,4.90
2022-09-20T09:23:40.983Z,3.70
2022-09-20T09:26:21.085Z,4.07
2022-09-20T09:28:48.410Z,3.58
2022-09-20T09:31:25.684Z,5.57
2022-09-20T09:33:52.462Z,3.45
2022-09-20T09:36:26.138Z,4.00
2022-09-20T09:39:23.110Z,4.53
2022-09-20T09:41:51.000Z,3.63
2022-09-20T09:44:30.327Z,5.40
2022-09-20T09:46:57.641Z,3.75
2022-09-20T09:49:34.098Z,3.88
2022-09-20T09:52:14.287Z,5.05
2022-09-20T09:54:42.189Z,3.75
2022-09-20T09:57:34.273Z,2.97
2022-09-20T10:00:19.450Z,5.18
2022-09-20T10:03:08.326Z,4.65
2022-09-20T10:06:12.562Z,7.25
2022-09-20T10:09:03.556Z,3.83
2022-09-20T10:11:48.738Z,4.10
2022-09-20T10:14:46.128Z,4.63
2022-09-20T10:17:23.383Z,3.78
2022-09-20T10:20:08.397Z,4.07
2022-09-20T10:23:06.787Z,4.45
2022-09-20T10:26:06.199Z,6.27
2022-09-20T10:28:57.416Z,5.07
2022-09-20T10:31:48.570Z,4.70
2022-09-20T10:34:32.952Z,4.80
2022-09-20T10:37:00.721Z,3.13
2022-09-20T10:39:30.248Z,3.30
2022-09-20T10:42:27.326Z,4.90
2022-09-20T10:46:03.385Z,4.90
2022-09-20T10:48:32.864Z,3.72
2022-09-20T10:50:59.243Z,3.97
2022-09-20T10:53:38.969Z,2.50
2022-09-20T10:56:15.238Z,2.97
2022-09-20T10:58:56.898Z,5.05
2022-09-20T11:01:45.078Z,3.88
2022-09-20T11:04:45.601Z,4.90
2022-09-20T11:07:12.138Z,3.90
2022-09-20T11:09:42.178Z,4.07
2022-09-20T11:12:21.808Z,3.13
2022-09-20T11:14:55.966Z,5.68
2022-09-20T11:17:24.844Z,4.45
2022-09-20T11:20:08.160Z,5.10
2022-09-20T11:22:40.104Z,6.60
2022-09-20T11:25:29.320Z,4.18
2022-09-20T11:28:20.479Z,3.70
2022-09-20T11:31:15.294Z,3.63
2022-09-20T11:33:55.189Z,4.23
2022-09-20T11:36:39.364Z,4.50
2022-09-20T11:39:11.295Z,4.40
2022-09-20T11:41:37.722Z,3.95
2022-09-20T11:44:12.462Z,4.55
2022-09-20T11:46:47.760Z,3.70
2022-09-20T11:49:18.936Z,4.90
2022-09-20T11:52:03.613Z,3.95
2022-09-20T11:54:55.741Z,2.90
2022-09-20T11:57:24.106Z,3.40
2022-09-20T11:59:57.406Z,3.87
2022-09-20T12:02:29.043Z,2.97
2022-09-20T12:04:56.550Z,4.35
2022-09-20T12:07:24.240Z,3.08
2022-09-20T12:09:59.402Z,3.55
2022-09-20T12:12:42.193Z,2.97
2022-09-20T12:15:31.654Z,2.13
2022-09-20T12:17:58.050Z,3.45
2022-09-20T12:20:38.622Z,3.83
2022-09-20T12:23:42.470Z,5.45
2022-09-20T12:26:20.462Z,2.77
2022-09-20T12:28:58.704Z,4.20
2022-09-20T12:31:26.137Z,4.00
2022-09-20T12:34:13.286Z,3.40
2022-09-20T12:36:59.976Z,4.03
2022-09-20T12:39:33.212Z,3.57
2022-09-20T12:42:00.997Z,5.30
2022-09-20T12:44:42.089Z,3.60
2022-09-20T12:47:11.512Z,3.35
2022-09-20T12:50:05.934Z,2.65
2022-09-20T12:52:50.729Z,2.40
2022-09-20T12:55:46.930Z,2.75
2022-09-20T12:58:13.295Z,3.67
2022-09-20T13:00:47.535Z,3.50
2022-09-20T13:03:28.436Z,6.32
2022-09-20T13:06:07.123Z,3.67
2022-09-20T13:08:42.751Z,4.13
2022-09-20T13:11:21.182Z,5.70
2022-09-20T13:13:57.583Z,3.13
2022-09-20T13:16:37.483Z,4.68
2022-09-20T13:19:15.312Z,2.73
2022-09-20T13:21:51.225Z,3.47
2022-09-20T13:24:19.102Z,3.47
2022-09-20T13:26:47.037Z,3.00
2022-09-20T13:29:40.732Z,4.18
2022-09-20T13:32:27.446Z,3.03
2022-09-20T13:35:12.029Z,3.65
2022-09-20T13:37:43.690Z,3.55
2022-09-20T13:40:39.911Z,3.55
2022-09-20T13:43:23.494Z,5.28
2022-09-20T13:45:55.003Z,4.60
2022-09-20T13:48:25.069Z,2.83
2022-09-20T13:50:53.766Z,3.30
2022-09-20T13:53:40.131Z,2.53
2022-09-20T13:56:37.474Z,2.67
2022-09-20T13:59:08.033Z,3.93
2022-09-20T14:01:35.458Z,3.35
2022-09-20T14:04:08.147Z,2.35
2022-09-20T14:06:35.577Z,4.38
2022-09-20T14:09:10.405Z,4.32
2022-09-20T14:11:38.464Z,3.93
2022-09-20T14:14:07.923Z,2.92
2022-09-20T14:16:46.687Z,3.08
2022-09-20T14:19:18.971Z,2.53
2022-09-20T14:21:45.825Z,2.70
2022-09-20T14:24:25.939Z,2.67
2022-09-20T14:27:18.244Z,1.38
2022-09-20T14:29:53.261Z,1.80
2022-09-20T14:32:19.686Z,1.98
2022-09-20T14:35:01.012Z,3.47
2022-09-20T14:37:29.796Z,2.37
2022-09-20T14:39:58.207Z,3.55
2022-09-20T14:42:42.904Z,3.67
2022-09-20T14:45:29.724Z,1.50
2022-09-20T14:47:57.993Z,3.60
2022-09-20T14:50:24.526Z,4.13
2022-09-20T14:53:01.154Z,4.03
2022-09-20T14:55:36.932Z,1.55
2022-09-20T14:58:09.757Z,1.77
2022-09-20T15:01:01.119Z,2.72
2022-09-20T15:03:30.973Z,2.77
2022-09-20T15:05:57.650Z,2.67
2022-09-20T15:08:24.085Z,2.70
2022-09-20T15:10:50.721Z,3.35
2022-09-20T15:13:18.101Z,3.33
2022-09-20T15:15:44.609Z,5.60
2022-09-20T15:18:26.354Z,2.85
2022-09-20T15:20:54.151Z,2.33
2022-09-20T15:23:21.246Z,3.80
2022-09-20T15:25:50.523Z,4.10
2022-09-20T15:28:17.268Z,3.00
2022-09-20T15:30:45.643Z,3.35
2022-09-20T15:33:12.769Z,3.92
2022-09-20T15:35:40.246Z,3.72
2022-09-20T15:38:08.962Z,3.28
2022-09-20T15:40:36.017Z,3.53
2022-09-20T15:43:02.532Z,2.60
2022-09-20T15:45:29.084Z,3.97
2022-09-20T15:47:57.656Z,2.95
2022-09-20T15:50:24.802Z,4.13
2022-09-20T15:52:51.980Z,4.40
2022-09-20T15:55:19.320Z,4.80
2022-09-20T15:57:46.225Z,3.85
2022-09-20T16:00:13.013Z,4.53
2022-09-20T16:02:39.421Z,3.65
2022-09-20T16:05:06.591Z,3.83
2022-09-20T16:07:33.005Z,4.53
2022-09-20T16:09:59.422Z,7.32
2022-09-20T16:12:25.975Z,6.13
2022-09-20T16:14:52.646Z,3.72
2022-09-20T16:17:39.209Z,3.77
2022-09-20T16:20:06.433Z,4.07
2022-09-20T16:22:34.047Z,4.85
2022-09-20T16:25:01.331Z,4.80
2022-09-20T16:27:27.744Z,6.55
2022-09-20T16:29:54.867Z,4.43
2022-09-20T16:32:21.514Z,6.82
2022-09-20T16:34:50.800Z,4.72
2022-09-20T16:37:17.223Z,5.05
2022-09-20T16:39:44.368Z,6.07
2022-09-20T16:42:12.336Z,6.77
2022-09-20T16:44:41.790Z,7.32
2022-09-20T16:47:11.762Z,4.97
2022-09-20T16:49:38.542Z,4.80
2022-09-20T16:52:06.254Z,5.03
2022-09-20T16:54:33.745Z,5.40
2022-09-20T16:57:00.455Z,4.93
2022-09-20T16:59:26.866Z,5.18
2022-09-20T17:01:53.295Z,5.32
2022-09-20T17:04:21.066Z,5.20
2022-09-20T17:06:48.657Z,5.87
2022-09-20T17:09:16.003Z,5.72
2022-09-20T17:11:47.858Z,4.80
2022-09-20T17:14:17.128Z,6.00
2022-09-20T17:16:47.494Z,5.80
2022-09-20T17:19:15.744Z,6.00
2022-09-20T17:21:45.626Z,6.55
2022-09-20T17:24:13.725Z,5.90
2022-09-20T17:26:41.908Z,7.88
2022-09-20T17:29:10.239Z,6.45
2022-09-20T17:31:39.110Z,5.10
2022-09-20T17:34:08.421Z,6.93
2022-09-20T17:36:40.642Z,5.70
2022-09-20T17:39:10.838Z,5.82
2022-09-20T17:41:37.897Z,5.15
2022-09-20T17:44:08.303Z,4.30
2022-09-20T17:46:37.099Z,4.80
2022-09-20T17:49:06.851Z,5.47
2022-09-20T17:51:38.939Z,4.93
2022-09-20T17:54:06.436Z,4.03
2022-09-20T17:56:33.368Z,4.43
2022-09-20T17:59:04.427Z,4.22
2022-09-20T18:01:32.738Z,5.68
2022-09-20T18:04:00.629Z,4.70
2022-09-20T18:06:29.185Z,5.70
2022-09-20T18:08:57.674Z,5.97
2022-09-20T18:11:28.747Z,4.63
2022-09-20T18:13:55.199Z,5.55
2022-09-20T18:16:21.802Z,5.55
2022-09-20T18:18:49.551Z,5.45
2022-09-20T18:21:18.300Z,5.00
2022-09-20T18:23:46.327Z,5.60
2022-09-20T18:26:23.493Z,6.32
2022-09-20T18:29:12.596Z,8.05
2022-09-20T18:31:57.879Z,6.43
2022-09-20T18:34:31.957Z,6.27
2022-09-20T18:37:00.251Z,5.18
2022-09-20T18:39:35.182Z,5.05
2022-09-20T18:42:03.178Z,6.32
2022-09-20T18:44:34.257Z,7.03
2022-09-20T18:47:03.238Z,5.53
2022-09-20T18:49:30.433Z,6.72
2022-09-20T18:51:57.117Z,5.55
2022-09-20T18:54:23.583Z,5.15
2022-09-20T18:56:50.858Z,5.43
2022-09-20T18:59:22.324Z,6.37
2022-09-20T19:01:54.993Z,5.45
2022-09-20T19:04:43.580Z,6.32
2022-09-20T19:07:25.028Z,5.88
2022-09-20T19:09:51.390Z,5.55
2022-09-20T19:12:23.318Z,6.00
2022-09-20T19:15:08.451Z,5.47
2022-09-20T19:18:13.604Z,4.97
2022-09-20T19:21:14.208Z,4.57
2022-09-20T19:24:06.753Z,4.97
2022-09-20T19:26:38.464Z,4.23
2022-09-20T19:29:17.583Z,5.25
2022-09-20T19:31:44.284Z,5.15
2022-09-20T19:34:19.125Z,5.38
2022-09-20T19:36:54.484Z,7.45
2022-09-20T19:39:39.849Z,5.47
2022-09-20T19:42:36.116Z,5.18
2022-09-20T19:45:16.328Z,5.22
2022-09-20T19:48:04.750Z,5.38
2022-09-20T19:50:33.125Z,6.50
2022-09-20T19:53:04.177Z,6.70
2022-09-20T19:55:34.969Z,5.55
2022-09-20T19:58:02.036Z,5.43
